Pine Valley, CA

4:08 AM PST on March 06, 2015 (GMT -0800)
Brown Municipal | Change Station
CLOSE
Current Station
Airport
Location: San Diego Brown,
Elevation: 525 ft
Nearby Weather Stations
Active Advisory: Wind Advisory

Elev 525 ft 32.57 °N, 116.98 °W | Updated 15 minutes ago

Clear
Clear
43 °F
Feels Like 38 °F
N
8
Wind Variable Wind from SE

Today
High -- | Low -- °F
--% Chance of Precip.
Yesterday
High -- | Low -- °F
Precip. -- in
6:07 AM 5:46 PM
Full, 100% visible
Pressure 30.11 in
Visibility 10.0 miles
Clouds Clear
Windchill 38 °F
Dew Point 31 °F
Humidity 62%
Rainfall 0.00 in
Snow Depth Not available.
UV 0 out of 12
Pollen 8.80 out of 12
Air Quality Not available.
Flu Activity Not available.
METAR KSDM 061153Z AUTO 13007KT 10SM CLR 06/M01 A3011 RMK AO2 SLP194 T00611006 10144 20061 57010

More Conditions Fewer Conditions

Pressure 30.11 in
Visibility 10.0 miles
Clouds Clear
Windchill 38 °F
Dew Point 31 °F
Humidity 62%
Rainfall 0.00 in
Snow Depth Not available.
UV 0 out of 12
Pollen 8.80 out of 12
Air Quality Not available.
Flu Activity Not available.
METAR KSDM 061153Z AUTO 13007KT 10SM CLR 06/M01 A3011 RMK AO2 SLP194 T00611006 10144 20061 57010

More Conditions Fewer Conditions

10-Day Weather Forecast

Almanac

Astronomy

Mar. 06, 2015 Rise Set
Actual Time
Civil Twilight
Nautical Twilight
Astronomical Twilight
Moon
Length of Visible Light
Length of Day
Tomorrow will be .
, % of the Moon is Illuminated

Today's Extremes

State Highs State Lows

Community

WunderPhotos

Upload Photos

1,803,237 photos uploaded!

WunderBlogs® & News

Nearby

Air Quality

  Air Quality AQ Index Pollutant
Not available.

Snow Depth

Station Depth Elevation

Earthquake Activity

City Distance Mag. Time & Date
Minimum magnitude displayed is 2.5.

Coastal Water Temperatures

Place Temperature

Nearby Weather Stations

Wind Advisory
Statement as of 3:05 AM PST on March 06, 2015

... Wind Advisory in effect until noon PST Saturday...

The National Weather Service in San Diego has issued a Wind
Advisory... which is in effect until noon PST Saturday.

* Winds... areas of northeast to east winds 20 to 30 mph with gusts
to 50 mph. Isolated gusts to 70 mph.

* Timing... strongest winds this morning and again late tonight
through Saturday morning.

* Impacts... strong winds will make driving difficult for high
profile vehicles.

Precautionary/preparedness actions...

A Wind Advisory means that winds of 35 mph are expected. Winds
this strong can make driving difficult... especially for high
profile vehicles. Use extra caution.